sensor_id;sensor_type;location;lat;lon;timestamp;temperature;humidity
13711;DHT22;6927;51.256;9.410;2022-09-03T00:02:30;15.20;99.90
13711;DHT22;6927;51.256;9.410;2022-09-03T00:05:04;15.20;99.90
13711;DHT22;6927;51.256;9.410;2022-09-03T00:07:43;15.10;99.90
13711;DHT22;6927;51.256;9.410;2022-09-03T00:10:15;15.00;99.90
13711;DHT22;6927;51.256;9.410;2022-09-03T00:12:45;14.90;99.90
13711;DHT22;6927;51.256;9.410;2022-09-03T00:15:14;14.80;99.90
13711;DHT22;6927;51.256;9.410;2022-09-03T00:20:58;14.60;99.90
13711;DHT22;6927;51.256;9.410;2022-09-03T00:23:32;14.50;99.90
13711;DHT22;6927;51.256;9.410;2022-09-03T00:29:05;14.40;99.90
13711;DHT22;6927;51.256;9.410;2022-09-03T00:31:41;14.30;99.90
13711;DHT22;6927;51.256;9.410;2022-09-03T00:34:19;14.20;99.90
13711;DHT22;6927;51.256;9.410;2022-09-03T00:36:47;14.00;99.90
13711;DHT22;6927;51.256;9.410;2022-09-03T00:39:19;14.00;99.90
13711;DHT22;6927;51.256;9.410;2022-09-03T00:44:47;13.80;99.90
13711;DHT22;6927;51.256;9.410;2022-09-03T00:50:35;13.70;99.90
13711;DHT22;6927;51.256;9.410;2022-09-03T00:55:51;13.50;99.90
13711;DHT22;6927;51.256;9.410;2022-09-03T00:58:36;13.40;99.90
13711;DHT22;6927;51.256;9.410;2022-09-03T01:01:13;13.30;99.90
13711;DHT22;6927;51.256;9.410;2022-09-03T01:03:56;13.30;99.90
13711;DHT22;6927;51.256;9.410;2022-09-03T01:06:47;13.30;99.90
13711;DHT22;6927;51.256;9.410;2022-09-03T01:09:41;13.20;99.90
13711;DHT22;6927;51.256;9.410;2022-09-03T01:20:44;13.00;99.90
13711;DHT22;6927;51.256;9.410;2022-09-03T01:23:56;12.90;99.90
13711;DHT22;6927;51.256;9.410;2022-09-03T01:26:43;12.80;99.90
13711;DHT22;6927;51.256;9.410;2022-09-03T01:32:13;12.60;99.90
13711;DHT22;6927;51.256;9.410;2022-09-03T01:34:54;12.60;99.90
13711;DHT22;6927;51.256;9.410;2022-09-03T01:40:24;12.40;99.90
13711;DHT22;6927;51.256;9.410;2022-09-03T01:43:21;12.40;99.90
13711;DHT22;6927;51.256;9.410;2022-09-03T01:45:53;12.30;99.90
13711;DHT22;6927;51.256;9.410;2022-09-03T01:48:30;12.20;99.90
13711;DHT22;6927;51.256;9.410;2022-09-03T01:51:28;12.20;99.90
13711;DHT22;6927;51.256;9.410;2022-09-03T01:54:23;12.20;99.90
13711;DHT22;6927;51.256;9.410;2022-09-03T02:00:03;12.10;99.90
13711;DHT22;6927;51.256;9.410;2022-09-03T02:02:29;12.10;99.90
13711;DHT22;6927;51.256;9.410;2022-09-03T02:05:01;12.10;99.90
13711;DHT22;6927;51.256;9.410;2022-09-03T02:07:33;12.10;99.90
13711;DHT22;6927;51.256;9.410;2022-09-03T02:10:00;12.10;99.90
13711;DHT22;6927;51.256;9.410;2022-09-03T02:12:28;12.10;99.90
13711;DHT22;6927;51.256;9.410;2022-09-03T02:14:57;12.00;99.90
13711;DHT22;6927;51.256;9.410;2022-09-03T02:17:24;12.00;99.90
13711;DHT22;6927;51.256;9.410;2022-09-03T02:19:49;12.00;99.90
13711;DHT22;6927;51.256;9.410;2022-09-03T02:22:16;11.90;99.90
13711;DHT22;6927;51.256;9.410;2022-09-03T02:24:41;11.90;99.90
13711;DHT22;6927;51.256;9.410;2022-09-03T02:27:08;11.90;99.90
13711;DHT22;6927;51.256;9.410;2022-09-03T02:29:33;11.90;99.90
13711;DHT22;6927;51.256;9.410;2022-09-03T02:31:59;11.80;99.90
13711;DHT22;6927;51.256;9.410;2022-09-03T02:34:25;11.80;99.90
13711;DHT22;6927;51.256;9.410;2022-09-03T02:36:50;11.70;99.90
13711;DHT22;6927;51.256;9.410;2022-09-03T02:39:16;11.70;99.90
13711;DHT22;6927;51.256;9.410;2022-09-03T02:41:42;11.70;99.90
13711;DHT22;6927;51.256;9.410;2022-09-03T02:44:25;11.60;99.90
13711;DHT22;6927;51.256;9.410;2022-09-03T02:47:01;11.60;99.90
13711;DHT22;6927;51.256;9.410;2022-09-03T02:49:28;11.60;99.90
13711;DHT22;6927;51.256;9.410;2022-09-03T02:52:03;11.50;99.90
13711;DHT22;6927;51.256;9.410;2022-09-03T02:54:37;11.40;99.90
13711;DHT22;6927;51.256;9.410;2022-09-03T02:57:11;11.30;99.90
13711;DHT22;6927;51.256;9.410;2022-09-03T02:59:36;11.30;99.90
13711;DHT22;6927;51.256;9.410;2022-09-03T03:02:04;11.30;99.90
13711;DHT22;6927;51.256;9.410;2022-09-03T03:04:30;11.30;99.90
13711;DHT22;6927;51.256;9.410;2022-09-03T03:06:55;11.30;99.90
13711;DHT22;6927;51.256;9.410;2022-09-03T03:09:21;11.20;99.90
13711;DHT22;6927;51.256;9.410;2022-09-03T03:11:47;11.20;99.90
13711;DHT22;6927;51.256;9.410;2022-09-03T03:14:14;11.20;99.90
13711;DHT22;6927;51.256;9.410;2022-09-03T03:16:40;11.10;99.90
13711;DHT22;6927;51.256;9.410;2022-09-03T03:19:06;11.10;99.90
13711;DHT22;6927;51.256;9.410;2022-09-03T03:21:31;11.00;99.90
13711;DHT22;6927;51.256;9.410;2022-09-03T03:23:57;11.10;99.90
13711;DHT22;6927;51.256;9.410;2022-09-03T03:26:22;11.10;99.90
13711;DHT22;6927;51.256;9.410;2022-09-03T03:28:49;11.00;99.90
13711;DHT22;6927;51.256;9.410;2022-09-03T03:31:20;11.10;99.90
13711;DHT22;6927;51.256;9.410;2022-09-03T03:33:54;11.10;99.90
13711;DHT22;6927;51.256;9.410;2022-09-03T03:36:21;11.10;99.90
13711;DHT22;6927;51.256;9.410;2022-09-03T03:38:47;11.10;99.90
13711;DHT22;6927;51.256;9.410;2022-09-03T03:41:15;11.10;99.90
13711;DHT22;6927;51.256;9.410;2022-09-03T03:43:42;11.00;99.90
13711;DHT22;6927;51.256;9.410;2022-09-03T03:46:08;11.00;99.90
13711;DHT22;6927;51.256;9.410;2022-09-03T03:48:35;11.00;99.90
13711;DHT22;6927;51.256;9.410;2022-09-03T03:51:02;10.90;99.90
13711;DHT22;6927;51.256;9.410;2022-09-03T03:53:37;10.90;99.90
13711;DHT22;6927;51.256;9.410;2022-09-03T03:56:05;10.90;99.90
13711;DHT22;6927;51.256;9.410;2022-09-03T03:58:31;10.80;99.90
13711;DHT22;6927;51.256;9.410;2022-09-03T04:01:12;10.80;99.90
13711;DHT22;6927;51.256;9.410;2022-09-03T04:03:38;10.70;99.90
13711;DHT22;6927;51.256;9.410;2022-09-03T04:06:04;10.60;99.90
13711;DHT22;6927;51.256;9.410;2022-09-03T04:08:34;10.60;99.90
13711;DHT22;6927;51.256;9.410;2022-09-03T04:11:01;10.60;99.90
13711;DHT22;6927;51.256;9.410;2022-09-03T04:13:32;10.50;99.90
13711;DHT22;6927;51.256;9.410;2022-09-03T04:18:26;10.50;99.90
13711;DHT22;6927;51.256;9.410;2022-09-03T04:20:52;10.50;99.90
13711;DHT22;6927;51.256;9.410;2022-09-03T04:23:18;10.50;99.90
13711;DHT22;6927;51.256;9.410;2022-09-03T04:25:43;10.40;99.90
13711;DHT22;6927;51.256;9.410;2022-09-03T04:28:16;10.40;99.90
13711;DHT22;6927;51.256;9.410;2022-09-03T04:30:41;10.40;99.90
13711;DHT22;6927;51.256;9.410;2022-09-03T04:33:06;10.30;99.90
13711;DHT22;6927;51.256;9.410;2022-09-03T04:35:32;10.30;99.90
13711;DHT22;6927;51.256;9.410;2022-09-03T04:37:58;10.30;99.90
13711;DHT22;6927;51.256;9.410;2022-09-03T04:40:24;10.30;99.90
13711;DHT22;6927;51.256;9.410;2022-09-03T04:42:49;10.20;99.90
13711;DHT22;6927;51.256;9.410;2022-09-03T04:45:16;10.20;99.90
13711;DHT22;6927;51.256;9.410;2022-09-03T04:47:54;10.30;99.90
13711;DHT22;6927;51.256;9.410;2022-09-03T04:50:20;10.30;99.90
13711;DHT22;6927;51.256;9.410;2022-09-03T04:52:46;10.30;99.90
13711;DHT22;6927;51.256;9.410;2022-09-03T04:55:11;10.30;99.90
13711;DHT22;6927;51.256;9.410;2022-09-03T04:57:37;10.30;99.90
13711;DHT22;6927;51.256;9.410;2022-09-03T05:00:03;10.30;99.90
13711;DHT22;6927;51.256;9.410;2022-09-03T05:02:29;10.30;99.90
13711;DHT22;6927;51.256;9.410;2022-09-03T05:04:55;10.30;99.90
13711;DHT22;6927;51.256;9.410;2022-09-03T05:07:20;10.30;99.90
13711;DHT22;6927;51.256;9.410;2022-09-03T05:09:46;10.30;99.90
13711;DHT22;6927;51.256;9.410;2022-09-03T05:12:11;10.30;99.90
13711;DHT22;6927;51.256;9.410;2022-09-03T05:14:37;10.40;99.90
13711;DHT22;6927;51.256;9.410;2022-09-03T05:17:03;10.40;99.90
13711;DHT22;6927;51.256;9.410;2022-09-03T05:19:28;10.50;99.90
13711;DHT22;6927;51.256;9.410;2022-09-03T05:21:54;10.60;99.90
13711;DHT22;6927;51.256;9.410;2022-09-03T05:24:19;10.70;99.90
13711;DHT22;6927;51.256;9.410;2022-09-03T05:26:45;10.70;99.90
13711;DHT22;6927;51.256;9.410;2022-09-03T05:29:11;10.80;99.90
13711;DHT22;6927;51.256;9.410;2022-09-03T05:31:38;10.80;99.90
13711;DHT22;6927;51.256;9.410;2022-09-03T05:34:06;10.90;99.90
13711;DHT22;6927;51.256;9.410;2022-09-03T05:36:35;10.90;99.90
13711;DHT22;6927;51.256;9.410;2022-09-03T05:39:03;11.00;99.90
13711;DHT22;6927;51.256;9.410;2022-09-03T05:41:29;11.20;99.90
13711;DHT22;6927;51.256;9.410;2022-09-03T05:43:56;11.20;99.90
13711;DHT22;6927;51.256;9.410;2022-09-03T05:46:25;11.30;99.90
13711;DHT22;6927;51.256;9.410;2022-09-03T05:49:02;11.40;99.90
13711;DHT22;6927;51.256;9.410;2022-09-03T05:51:28;11.60;99.90
13711;DHT22;6927;51.256;9.410;2022-09-03T05:54:00;11.70;99.90
13711;DHT22;6927;51.256;9.410;2022-09-03T05:56:28;11.80;99.90
13711;DHT22;6927;51.256;9.410;2022-09-03T05:58:56;12.00;99.90
13711;DHT22;6927;51.256;9.410;2022-09-03T06:01:26;12.20;99.90
13711;DHT22;6927;51.256;9.410;2022-09-03T06:04:01;12.40;99.90
13711;DHT22;6927;51.256;9.410;2022-09-03T06:06:28;12.70;99.90
13711;DHT22;6927;51.256;9.410;2022-09-03T06:08:56;12.90;99.90
13711;DHT22;6927;51.256;9.410;2022-09-03T06:11:22;13.20;99.90
13711;DHT22;6927;51.256;9.410;2022-09-03T06:13:53;13.40;99.90
13711;DHT22;6927;51.256;9.410;2022-09-03T06:16:19;13.70;99.90
13711;DHT22;6927;51.256;9.410;2022-09-03T06:18:45;13.90;99.90
13711;DHT22;6927;51.256;9.410;2022-09-03T06:21:11;14.20;99.90
13711;DHT22;6927;51.256;9.410;2022-09-03T06:23:37;14.40;99.90
13711;DHT22;6927;51.256;9.410;2022-09-03T06:26:10;14.70;99.90
13711;DHT22;6927;51.256;9.410;2022-09-03T06:28:41;15.00;99.90
13711;DHT22;6927;51.256;9.410;2022-09-03T06:31:11;15.40;99.90
13711;DHT22;6927;51.256;9.410;2022-09-03T06:33:38;15.90;99.90
13711;DHT22;6927;51.256;9.410;2022-09-03T06:36:15;16.40;99.90
13711;DHT22;6927;51.256;9.410;2022-09-03T06:38:42;17.10;99.90
13711;DHT22;6927;51.256;9.410;2022-09-03T06:41:11;18.10;99.90
13711;DHT22;6927;51.256;9.410;2022-09-03T06:43:41;18.60;99.90
13711;DHT22;6927;51.256;9.410;2022-09-03T06:46:09;19.20;99.90
13711;DHT22;6927;51.256;9.410;2022-09-03T06:48:36;20.10;99.90
13711;DHT22;6927;51.256;9.410;2022-09-03T06:51:04;20.60;99.90
13711;DHT22;6927;51.256;9.410;2022-09-03T06:53:33;20.80;99.90
13711;DHT22;6927;51.256;9.410;2022-09-03T06:56:01;21.30;99.90
13711;DHT22;6927;51.256;9.410;2022-09-03T06:58:32;21.60;99.90
13711;DHT22;6927;51.256;9.410;2022-09-03T07:01:06;22.10;99.90
13711;DHT22;6927;51.256;9.410;2022-09-03T07:03:33;22.20;99.90
13711;DHT22;6927;51.256;9.410;2022-09-03T07:06:01;22.40;99.90
13711;DHT22;6927;51.256;9.410;2022-09-03T07:08:27;22.00;99.90
13711;DHT22;6927;51.256;9.410;2022-09-03T07:10:52;21.70;99.90
13711;DHT22;6927;51.256;9.410;2022-09-03T07:13:18;22.20;99.90
13711;DHT22;6927;51.256;9.410;2022-09-03T07:15:44;22.20;99.90
13711;DHT22;6927;51.256;9.410;2022-09-03T07:18:10;21.60;99.90
13711;DHT22;6927;51.256;9.410;2022-09-03T07:20:35;20.90;99.90
13711;DHT22;6927;51.256;9.410;2022-09-03T07:23:01;20.80;99.90
13711;DHT22;6927;51.256;9.410;2022-09-03T07:25:26;20.60;99.90
13711;DHT22;6927;51.256;9.410;2022-09-03T07:27:52;20.40;99.90
13711;DHT22;6927;51.256;9.410;2022-09-03T07:30:18;20.00;99.90
13711;DHT22;6927;51.256;9.410;2022-09-03T07:32:45;19.50;99.90
13711;DHT22;6927;51.256;9.410;2022-09-03T07:35:11;19.20;99.90
13711;DHT22;6927;51.256;9.410;2022-09-03T07:37:40;19.00;99.90
13711;DHT22;6927;51.256;9.410;2022-09-03T07:40:06;18.80;99.90
13711;DHT22;6927;51.256;9.410;2022-09-03T07:42:32;18.70;99.90
13711;DHT22;6927;51.256;9.410;2022-09-03T07:45:00;18.70;99.90
13711;DHT22;6927;51.256;9.410;2022-09-03T07:47:30;18.70;99.90
13711;DHT22;6927;51.256;9.410;2022-09-03T07:49:56;19.10;99.90
13711;DHT22;6927;51.256;9.410;2022-09-03T07:52:21;20.20;99.90
13711;DHT22;6927;51.256;9.410;2022-09-03T07:54:47;21.40;99.90
13711;DHT22;6927;51.256;9.410;2022-09-03T07:57:12;22.20;99.90
13711;DHT22;6927;51.256;9.410;2022-09-03T07:59:38;22.80;99.90
13711;DHT22;6927;51.256;9.410;2022-09-03T08:02:04;23.50;99.90
13711;DHT22;6927;51.256;9.410;2022-09-03T08:04:30;23.90;99.90
13711;DHT22;6927;51.256;9.410;2022-09-03T08:06:58;24.30;99.90
13711;DHT22;6927;51.256;9.410;2022-09-03T08:09:24;24.80;99.90
13711;DHT22;6927;51.256;9.410;2022-09-03T08:11:50;25.60;99.90
13711;DHT22;6927;51.256;9.410;2022-09-03T08:14:15;26.20;99.90
13711;DHT22;6927;51.256;9.410;2022-09-03T08:16:43;26.80;99.90
13711;DHT22;6927;51.256;9.410;2022-09-03T08:19:11;27.20;99.90
13711;DHT22;6927;51.256;9.410;2022-09-03T08:21:37;27.30;99.90
13711;DHT22;6927;51.256;9.410;2022-09-03T08:24:06;27.00;99.90
13711;DHT22;6927;51.256;9.410;2022-09-03T08:26:34;27.50;99.90
13711;DHT22;6927;51.256;9.410;2022-09-03T08:29:00;27.40;99.90
13711;DHT22;6927;51.256;9.410;2022-09-03T08:31:26;27.60;99.90
13711;DHT22;6927;51.256;9.410;2022-09-03T08:33:53;27.60;99.90
13711;DHT22;6927;51.256;9.410;2022-09-03T08:36:22;27.60;99.90
13711;DHT22;6927;51.256;9.410;2022-09-03T08:38:48;27.80;99.90
13711;DHT22;6927;51.256;9.410;2022-09-03T08:41:27;27.50;99.90
13711;DHT22;6927;51.256;9.410;2022-09-03T08:43:59;27.10;99.90
13711;DHT22;6927;51.256;9.410;2022-09-03T08:58:02;26.90;99.90
13711;DHT22;6927;51.256;9.410;2022-09-03T09:00:52;27.60;99.90
13711;DHT22;6927;51.256;9.410;2022-09-03T09:11:45;28.30;99.90
13711;DHT22;6927;51.256;9.410;2022-09-03T09:14:24;28.70;99.90
13711;DHT22;6927;51.256;9.410;2022-09-03T09:17:19;28.20;99.90
13711;DHT22;6927;51.256;9.410;2022-09-03T09:23:07;28.40;99.90
13711;DHT22;6927;51.256;9.410;2022-09-03T09:25:43;28.40;99.90
13711;DHT22;6927;51.256;9.410;2022-09-03T09:28:34;28.30;99.90
13711;DHT22;6927;51.256;9.410;2022-09-03T09:31:02;27.70;99.90
13711;DHT22;6927;51.256;9.410;2022-09-03T09:33:29;28.00;99.90
13711;DHT22;6927;51.256;9.410;2022-09-03T09:35:58;27.00;99.90
13711;DHT22;6927;51.256;9.410;2022-09-03T09:38:33;26.80;99.90
13711;DHT22;6927;51.256;9.410;2022-09-03T09:41:13;26.40;99.90
13711;DHT22;6927;51.256;9.410;2022-09-03T09:43:40;25.90;99.90
13711;DHT22;6927;51.256;9.410;2022-09-03T09:46:12;26.70;99.90
13711;DHT22;6927;51.256;9.410;2022-09-03T09:48:55;27.10;99.90
13711;DHT22;6927;51.256;9.410;2022-09-03T09:51:28;27.10;99.90
13711;DHT22;6927;51.256;9.410;2022-09-03T09:54:10;27.20;99.90
13711;DHT22;6927;51.256;9.410;2022-09-03T09:56:36;27.10;99.90
13711;DHT22;6927;51.256;9.410;2022-09-03T09:59:07;27.40;99.90
13711;DHT22;6927;51.256;9.410;2022-09-03T10:01:34;27.30;99.90
13711;DHT22;6927;51.256;9.410;2022-09-03T10:04:10;26.80;99.90
13711;DHT22;6927;51.256;9.410;2022-09-03T10:06:35;26.40;99.90
13711;DHT22;6927;51.256;9.410;2022-09-03T10:09:25;25.60;99.90
13711;DHT22;6927;51.256;9.410;2022-09-03T10:12:16;25.50;99.90
13711;DHT22;6927;51.256;9.410;2022-09-03T10:18:15;26.10;99.90
13711;DHT22;6927;51.256;9.410;2022-09-03T10:20:50;25.70;99.90
13711;DHT22;6927;51.256;9.410;2022-09-03T10:23:24;25.20;99.90
13711;DHT22;6927;51.256;9.410;2022-09-03T10:26:08;24.80;99.90
13711;DHT22;6927;51.256;9.410;2022-09-03T10:28:37;24.10;99.90
13711;DHT22;6927;51.256;9.410;2022-09-03T10:34:33;23.80;99.90
13711;DHT22;6927;51.256;9.410;2022-09-03T10:37:17;24.10;99.90
13711;DHT22;6927;51.256;9.410;2022-09-03T10:42:53;24.50;99.90
13711;DHT22;6927;51.256;9.410;2022-09-03T10:45:55;24.70;99.90
13711;DHT22;6927;51.256;9.410;2022-09-03T10:48:59;25.20;99.90
13711;DHT22;6927;51.256;9.410;2022-09-03T10:51:41;25.10;99.90
13711;DHT22;6927;51.256;9.410;2022-09-03T10:57:05;24.50;99.90
13711;DHT22;6927;51.256;9.410;2022-09-03T11:07:24;23.90;99.90
13711;DHT22;6927;51.256;9.410;2022-09-03T11:10:18;24.10;99.90
13711;DHT22;6927;51.256;9.410;2022-09-03T11:12:52;24.00;99.90
13711;DHT22;6927;51.256;9.410;2022-09-03T11:15:33;23.70;99.90
13711;DHT22;6927;51.256;9.410;2022-09-03T11:18:17;23.70;99.90
13711;DHT22;6927;51.256;9.410;2022-09-03T11:20:46;24.00;99.90
13711;DHT22;6927;51.256;9.410;2022-09-03T11:23:15;24.40;99.90
13711;DHT22;6927;51.256;9.410;2022-09-03T11:25:48;25.00;99.90
13711;DHT22;6927;51.256;9.410;2022-09-03T11:33:49;27.10;99.90
13711;DHT22;6927;51.256;9.410;2022-09-03T11:36:25;27.20;99.90
13711;DHT22;6927;51.256;9.410;2022-09-03T11:38:52;26.80;99.90
13711;DHT22;6927;51.256;9.410;2022-09-03T11:43:46;26.30;99.90
13711;DHT22;6927;51.256;9.410;2022-09-03T11:46:26;25.70;99.90
13711;DHT22;6927;51.256;9.410;2022-09-03T11:49:08;25.80;99.90
13711;DHT22;6927;51.256;9.410;2022-09-03T11:51:35;26.10;99.90
13711;DHT22;6927;51.256;9.410;2022-09-03T11:56:39;27.40;99.90
13711;DHT22;6927;51.256;9.410;2022-09-03T12:02:01;27.80;99.90
13711;DHT22;6927;51.256;9.410;2022-09-03T12:07:04;27.40;99.90
13711;DHT22;6927;51.256;9.410;2022-09-03T12:15:38;26.50;99.90
13711;DHT22;6927;51.256;9.410;2022-09-03T12:18:15;26.50;99.90
13711;DHT22;6927;51.256;9.410;2022-09-03T12:20:44;26.30;99.90
13711;DHT22;6927;51.256;9.410;2022-09-03T12:25:51;25.70;99.90
13711;DHT22;6927;51.256;9.410;2022-09-03T12:28:20;25.40;99.90
13711;DHT22;6927;51.256;9.410;2022-09-03T12:30:48;25.30;99.90
13711;DHT22;6927;51.256;9.410;2022-09-03T12:33:18;25.20;99.90
13711;DHT22;6927;51.256;9.410;2022-09-03T12:35:55;25.20;99.90
13711;DHT22;6927;51.256;9.410;2022-09-03T12:38:25;25.20;99.90
13711;DHT22;6927;51.256;9.410;2022-09-03T12:40:51;24.90;99.90
13711;DHT22;6927;51.256;9.410;2022-09-03T12:43:17;24.90;99.90
13711;DHT22;6927;51.256;9.410;2022-09-03T12:45:47;24.40;99.90
13711;DHT22;6927;51.256;9.410;2022-09-03T12:48:16;24.30;99.90
13711;DHT22;6927;51.256;9.410;2022-09-03T12:50:43;23.90;99.90
13711;DHT22;6927;51.256;9.410;2022-09-03T12:53:12;23.80;99.90
13711;DHT22;6927;51.256;9.410;2022-09-03T12:55:53;23.90;99.90
13711;DHT22;6927;51.256;9.410;2022-09-03T13:01:10;23.90;99.90
13711;DHT22;6927;51.256;9.410;2022-09-03T13:03:51;23.90;99.90
13711;DHT22;6927;51.256;9.410;2022-09-03T13:06:25;23.90;99.90
13711;DHT22;6927;51.256;9.410;2022-09-03T13:08:58;24.00;99.90
13711;DHT22;6927;51.256;9.410;2022-09-03T13:11:24;24.10;99.90
13711;DHT22;6927;51.256;9.410;2022-09-03T13:14:02;24.10;99.90
13711;DHT22;6927;51.256;9.410;2022-09-03T13:19:55;24.00;99.90
13711;DHT22;6927;51.256;9.410;2022-09-03T13:30:40;23.70;99.90
13711;DHT22;6927;51.256;9.410;2022-09-03T13:33:33;23.70;99.90
13711;DHT22;6927;51.256;9.410;2022-09-03T13:36:14;23.70;99.90
13711;DHT22;6927;51.256;9.410;2022-09-03T13:39:02;23.70;99.90
13711;DHT22;6927;51.256;9.410;2022-09-03T13:41:50;23.70;99.90
13711;DHT22;6927;51.256;9.410;2022-09-03T13:52:20;23.60;99.90
13711;DHT22;6927;51.256;9.410;2022-09-03T13:54:56;23.60;99.90
13711;DHT22;6927;51.256;9.410;2022-09-03T13:57:52;23.60;99.90
13711;DHT22;6927;51.256;9.410;2022-09-03T14:00:42;23.80;99.90
13711;DHT22;6927;51.256;9.410;2022-09-03T14:06:04;23.70;99.90
13711;DHT22;6927;51.256;9.410;2022-09-03T14:09:03;23.60;99.90
13711;DHT22;6927;51.256;9.410;2022-09-03T14:11:37;23.60;99.90
13711;DHT22;6927;51.256;9.410;2022-09-03T14:15:00;23.60;99.90
13711;DHT22;6927;51.256;9.410;2022-09-03T14:20:27;23.60;99.90
13711;DHT22;6927;51.256;9.410;2022-09-03T14:25:27;23.40;99.90
13711;DHT22;6927;51.256;9.410;2022-09-03T14:30:56;23.00;99.90
13711;DHT22;6927;51.256;9.410;2022-09-03T14:33:36;22.90;99.90
13711;DHT22;6927;51.256;9.410;2022-09-03T14:36:09;22.70;99.90
13711;DHT22;6927;51.256;9.410;2022-09-03T14:39:01;22.70;99.90
13711;DHT22;6927;51.256;9.410;2022-09-03T14:56:25;22.60;99.90
13711;DHT22;6927;51.256;9.410;2022-09-03T15:01:32;22.50;99.90
13711;DHT22;6927;51.256;9.410;2022-09-03T15:07:45;22.40;99.90
13711;DHT22;6927;51.256;9.410;2022-09-03T15:10:25;22.40;99.90
13711;DHT22;6927;51.256;9.410;2022-09-03T15:12:54;22.30;99.90
13711;DHT22;6927;51.256;9.410;2022-09-03T15:18:22;22.10;99.90
13711;DHT22;6927;51.256;9.410;2022-09-03T15:21:00;22.10;99.90
13711;DHT22;6927;51.256;9.410;2022-09-03T15:23:49;22.10;99.90
13711;DHT22;6927;51.256;9.410;2022-09-03T15:26:37;22.10;99.90
13711;DHT22;6927;51.256;9.410;2022-09-03T15:29:24;22.10;99.90
13711;DHT22;6927;51.256;9.410;2022-09-03T15:32:27;22.00;99.90
13711;DHT22;6927;51.256;9.410;2022-09-03T15:37:52;21.90;99.90
13711;DHT22;6927;51.256;9.410;2022-09-03T15:40:53;21.80;99.90
13711;DHT22;6927;51.256;9.410;2022-09-03T15:43:28;21.60;99.90
13711;DHT22;6927;51.256;9.410;2022-09-03T15:46:01;21.50;99.90
13711;DHT22;6927;51.256;9.410;2022-09-03T15:48:56;21.40;99.90
13711;DHT22;6927;51.256;9.410;2022-09-03T15:51:33;21.20;99.90
13711;DHT22;6927;51.256;9.410;2022-09-03T15:54:11;20.90;99.90
13711;DHT22;6927;51.256;9.410;2022-09-03T15:57:09;20.70;99.90
13711;DHT22;6927;51.256;9.410;2022-09-03T16:00:00;20.50;99.90
13711;DHT22;6927;51.256;9.410;2022-09-03T16:05:46;20.30;99.90
13711;DHT22;6927;51.256;9.410;2022-09-03T16:11:14;20.40;99.90
13711;DHT22;6927;51.256;9.410;2022-09-03T16:13:54;20.40;99.90
13711;DHT22;6927;51.256;9.410;2022-09-03T16:16:23;20.50;99.90
13711;DHT22;6927;51.256;9.410;2022-09-03T16:19:04;20.60;99.90
13711;DHT22;6927;51.256;9.410;2022-09-03T16:21:53;20.60;99.90
13711;DHT22;6927;51.256;9.410;2022-09-03T16:24:30;20.60;99.90
13711;DHT22;6927;51.256;9.410;2022-09-03T16:29:30;20.60;99.90
13711;DHT22;6927;51.256;9.410;2022-09-03T16:34:55;20.30;99.90
13711;DHT22;6927;51.256;9.410;2022-09-03T16:56:42;19.60;99.90
13711;DHT22;6927;51.256;9.410;2022-09-03T17:02:05;19.40;99.90
13711;DHT22;6927;51.256;9.410;2022-09-03T17:16:11;19.00;99.90
13711;DHT22;6927;51.256;9.410;2022-09-03T17:18:46;19.00;99.90
13711;DHT22;6927;51.256;9.410;2022-09-03T17:27:11;18.90;99.90
13711;DHT22;6927;51.256;9.410;2022-09-03T17:30:04;18.80;99.90
13711;DHT22;6927;51.256;9.410;2022-09-03T17:35:45;18.70;99.90
13711;DHT22;6927;51.256;9.410;2022-09-03T17:38:25;18.70;99.90
13711;DHT22;6927;51.256;9.410;2022-09-03T17:41:11;18.70;99.90
13711;DHT22;6927;51.256;9.410;2022-09-03T17:47:26;18.70;99.90
13711;DHT22;6927;51.256;9.410;2022-09-03T17:49:07;18.70;99.90
13711;DHT22;6927;51.256;9.410;2022-09-03T17:51:43;18.60;99.90
13711;DHT22;6927;51.256;9.410;2022-09-03T17:56:55;18.50;99.90
13711;DHT22;6927;51.256;9.410;2022-09-03T18:02:11;18.40;99.90
13711;DHT22;6927;51.256;9.410;2022-09-03T18:04:52;18.40;99.90
13711;DHT22;6927;51.256;9.410;2022-09-03T18:07:28;18.30;99.90
13711;DHT22;6927;51.256;9.410;2022-09-03T18:10:08;18.30;99.90
13711;DHT22;6927;51.256;9.410;2022-09-03T18:15:47;18.20;99.90
13711;DHT22;6927;51.256;9.410;2022-09-03T18:18:27;18.10;99.90
13711;DHT22;6927;51.256;9.410;2022-09-03T18:20:56;18.10;99.90
13711;DHT22;6927;51.256;9.410;2022-09-03T18:24:00;18.10;99.90
13711;DHT22;6927;51.256;9.410;2022-09-03T18:26:54;18.00;99.90
13711;DHT22;6927;51.256;9.410;2022-09-03T18:30:04;18.00;99.90
13711;DHT22;6927;51.256;9.410;2022-09-03T18:32:49;18.00;99.90
13711;DHT22;6927;51.256;9.410;2022-09-03T18:35:33;18.00;99.90
13711;DHT22;6927;51.256;9.410;2022-09-03T18:38:24;17.90;99.90
13711;DHT22;6927;51.256;9.410;2022-09-03T18:41:34;17.90;99.90
13711;DHT22;6927;51.256;9.410;2022-09-03T18:54:18;17.90;99.90
13711;DHT22;6927;51.256;9.410;2022-09-03T18:57:13;17.90;99.90
13711;DHT22;6927;51.256;9.410;2022-09-03T19:00:08;17.90;99.90
13711;DHT22;6927;51.256;9.410;2022-09-03T19:03:05;17.90;99.90
13711;DHT22;6927;51.256;9.410;2022-09-03T19:12:29;18.00;99.90
13711;DHT22;6927;51.256;9.410;2022-09-03T19:15:22;18.00;99.90
13711;DHT22;6927;51.256;9.410;2022-09-03T19:18:34;18.00;99.90
13711;DHT22;6927;51.256;9.410;2022-09-03T19:21:42;18.00;99.90
13711;DHT22;6927;51.256;9.410;2022-09-03T19:24:29;17.90;99.90
13711;DHT22;6927;51.256;9.410;2022-09-03T19:31:09;17.80;99.90
13711;DHT22;6927;51.256;9.410;2022-09-03T19:46:29;17.30;99.90
13711;DHT22;6927;51.256;9.410;2022-09-03T19:52:53;17.00;99.90
13711;DHT22;6927;51.256;9.410;2022-09-03T19:55:41;17.00;99.90
13711;DHT22;6927;51.256;9.410;2022-09-03T19:58:29;16.90;99.90
13711;DHT22;6927;51.256;9.410;2022-09-03T20:01:15;16.80;99.90
13711;DHT22;6927;51.256;9.410;2022-09-03T20:04:12;16.70;99.90
13711;DHT22;6927;51.256;9.410;2022-09-03T20:06:57;16.70;99.90
13711;DHT22;6927;51.256;9.410;2022-09-03T20:09:44;16.60;99.90
13711;DHT22;6927;51.256;9.410;2022-09-03T20:12:36;16.60;99.90
13711;DHT22;6927;51.256;9.410;2022-09-03T20:15:05;16.50;99.90
13711;DHT22;6927;51.256;9.410;2022-09-03T20:17:49;16.50;99.90
13711;DHT22;6927;51.256;9.410;2022-09-03T20:20:34;16.50;99.90
13711;DHT22;6927;51.256;9.410;2022-09-03T20:23:29;16.40;99.90
13711;DHT22;6927;51.256;9.410;2022-09-03T20:26:34;16.30;99.90
13711;DHT22;6927;51.256;9.410;2022-09-03T20:29:19;16.30;99.90
13711;DHT22;6927;51.256;9.410;2022-09-03T20:32:13;16.20;99.90
13711;DHT22;6927;51.256;9.410;2022-09-03T20:42:15;15.90;99.90
13711;DHT22;6927;51.256;9.410;2022-09-03T20:44:49;15.90;99.90
13711;DHT22;6927;51.256;9.410;2022-09-03T20:47:45;15.80;99.90
13711;DHT22;6927;51.256;9.410;2022-09-03T20:56:29;15.70;99.90
13711;DHT22;6927;51.256;9.410;2022-09-03T21:04:38;15.70;99.90
13711;DHT22;6927;51.256;9.410;2022-09-03T21:07:28;15.70;99.90
13711;DHT22;6927;51.256;9.410;2022-09-03T21:10:31;15.60;99.90
13711;DHT22;6927;51.256;9.410;2022-09-03T21:15:53;15.60;99.90
13711;DHT22;6927;51.256;9.410;2022-09-03T21:21:34;15.50;99.90
13711;DHT22;6927;51.256;9.410;2022-09-03T21:26:42;15.40;99.90